sensor_id;sensor_type;location;lat;lon;timestamp;temperature;humidity
6244;DHT22;3155;49.940;8.450;2022-12-11T00:00:27;-4.80;99.90
6244;DHT22;3155;49.940;8.450;2022-12-11T00:02:53;-4.70;99.90
6244;DHT22;3155;49.940;8.450;2022-12-11T00:05:21;-4.60;99.90
6244;DHT22;3155;49.940;8.450;2022-12-11T00:07:51;-4.60;99.90
6244;DHT22;3155;49.940;8.450;2022-12-11T00:10:18;-4.60;99.90
6244;DHT22;3155;49.940;8.450;2022-12-11T00:12:45;-4.60;99.90
6244;DHT22;3155;49.940;8.450;2022-12-11T00:15:12;-4.50;99.90
6244;DHT22;3155;49.940;8.450;2022-12-11T00:17:39;-4.50;99.90
6244;DHT22;3155;49.940;8.450;2022-12-11T00:20:06;-4.50;99.90
6244;DHT22;3155;49.940;8.450;2022-12-11T00:22:34;-4.40;99.90
6244;DHT22;3155;49.940;8.450;2022-12-11T00:25:01;-4.30;99.90
6244;DHT22;3155;49.940;8.450;2022-12-11T00:27:28;-4.20;99.90
6244;DHT22;3155;49.940;8.450;2022-12-11T00:29:55;-4.10;99.90
6244;DHT22;3155;49.940;8.450;2022-12-11T00:32:21;-4.00;99.90
6244;DHT22;3155;49.940;8.450;2022-12-11T00:34:48;-3.90;99.90
6244;DHT22;3155;49.940;8.450;2022-12-11T00:37:15;-3.90;99.90
6244;DHT22;3155;49.940;8.450;2022-12-11T00:39:42;-4.00;99.90
6244;DHT22;3155;49.940;8.450;2022-12-11T00:42:09;-4.00;99.90
6244;DHT22;3155;49.940;8.450;2022-12-11T00:44:36;-4.00;99.90
6244;DHT22;3155;49.940;8.450;2022-12-11T00:47:03;-3.90;99.90
6244;DHT22;3155;49.940;8.450;2022-12-11T00:49:30;-4.00;99.90
6244;DHT22;3155;49.940;8.450;2022-12-11T00:51:59;-3.90;99.90
6244;DHT22;3155;49.940;8.450;2022-12-11T00:54:26;-3.90;99.90
6244;DHT22;3155;49.940;8.450;2022-12-11T00:56:54;-3.90;99.90
6244;DHT22;3155;49.940;8.450;2022-12-11T00:59:24;-3.80;99.90
6244;DHT22;3155;49.940;8.450;2022-12-11T01:01:51;-3.70;99.90
6244;DHT22;3155;49.940;8.450;2022-12-11T01:04:17;-3.70;99.90
6244;DHT22;3155;49.940;8.450;2022-12-11T01:06:44;-3.60;99.90
6244;DHT22;3155;49.940;8.450;2022-12-11T01:09:17;-3.60;99.90
6244;DHT22;3155;49.940;8.450;2022-12-11T01:12:03;-3.60;99.90
6244;DHT22;3155;49.940;8.450;2022-12-11T01:14:30;-3.50;99.90
6244;DHT22;3155;49.940;8.450;2022-12-11T01:16:57;-3.50;99.90
6244;DHT22;3155;49.940;8.450;2022-12-11T01:19:23;-3.50;99.90
6244;DHT22;3155;49.940;8.450;2022-12-11T01:21:50;-3.60;99.90
6244;DHT22;3155;49.940;8.450;2022-12-11T01:24:17;-3.60;99.90
6244;DHT22;3155;49.940;8.450;2022-12-11T01:26:44;-3.70;99.90
6244;DHT22;3155;49.940;8.450;2022-12-11T01:29:10;-3.60;99.90
6244;DHT22;3155;49.940;8.450;2022-12-11T01:31:37;-3.70;99.90
6244;DHT22;3155;49.940;8.450;2022-12-11T01:34:06;-3.70;99.90
6244;DHT22;3155;49.940;8.450;2022-12-11T01:36:36;-3.60;99.90
6244;DHT22;3155;49.940;8.450;2022-12-11T01:39:03;-3.60;99.90
6244;DHT22;3155;49.940;8.450;2022-12-11T01:41:30;-3.60;99.90
6244;DHT22;3155;49.940;8.450;2022-12-11T01:44:01;-3.60;99.90
6244;DHT22;3155;49.940;8.450;2022-12-11T01:46:29;-3.60;99.90
6244;DHT22;3155;49.940;8.450;2022-12-11T01:48:57;-3.60;99.90
6244;DHT22;3155;49.940;8.450;2022-12-11T01:51:25;-3.50;99.90
6244;DHT22;3155;49.940;8.450;2022-12-11T01:53:59;-3.50;99.90
6244;DHT22;3155;49.940;8.450;2022-12-11T01:56:30;-3.40;99.90
6244;DHT22;3155;49.940;8.450;2022-12-11T01:59:01;-3.40;99.90
6244;DHT22;3155;49.940;8.450;2022-12-11T02:01:54;-3.30;99.90
6244;DHT22;3155;49.940;8.450;2022-12-11T02:04:22;-3.30;99.90
6244;DHT22;3155;49.940;8.450;2022-12-11T02:06:51;-3.30;99.90
6244;DHT22;3155;49.940;8.450;2022-12-11T02:09:24;-3.30;99.90
6244;DHT22;3155;49.940;8.450;2022-12-11T02:31:14;-3.00;99.90
6244;DHT22;3155;49.940;8.450;2022-12-11T02:33:49;-3.00;99.90
6244;DHT22;3155;49.940;8.450;2022-12-11T02:36:20;-2.90;99.90
6244;DHT22;3155;49.940;8.450;2022-12-11T02:38:51;-2.90;99.90
6244;DHT22;3155;49.940;8.450;2022-12-11T02:41:20;-2.90;99.90
6244;DHT22;3155;49.940;8.450;2022-12-11T02:43:49;-2.90;99.90
6244;DHT22;3155;49.940;8.450;2022-12-11T02:46:21;-2.90;99.90
6244;DHT22;3155;49.940;8.450;2022-12-11T02:48:50;-2.80;99.90
6244;DHT22;3155;49.940;8.450;2022-12-11T02:51:26;-2.80;99.90
6244;DHT22;3155;49.940;8.450;2022-12-11T02:53:56;-2.80;99.90
6244;DHT22;3155;49.940;8.450;2022-12-11T02:56:36;-2.90;99.90
6244;DHT22;3155;49.940;8.450;2022-12-11T02:59:09;-2.90;99.90
6244;DHT22;3155;49.940;8.450;2022-12-11T03:01:40;-3.00;99.90
6244;DHT22;3155;49.940;8.450;2022-12-11T03:04:14;-3.00;99.90
6244;DHT22;3155;49.940;8.450;2022-12-11T03:06:44;-3.00;99.90
6244;DHT22;3155;49.940;8.450;2022-12-11T03:09:12;-3.00;99.90
6244;DHT22;3155;49.940;8.450;2022-12-11T03:11:45;-3.10;99.90
6244;DHT22;3155;49.940;8.450;2022-12-11T03:14:12;-3.10;99.90
6244;DHT22;3155;49.940;8.450;2022-12-11T03:17:02;-3.10;99.90
6244;DHT22;3155;49.940;8.450;2022-12-11T03:22:36;-3.00;99.90
6244;DHT22;3155;49.940;8.450;2022-12-11T03:25:12;-3.00;99.90
6244;DHT22;3155;49.940;8.450;2022-12-11T03:30:20;-2.90;99.90
6244;DHT22;3155;49.940;8.450;2022-12-11T03:32:55;-2.90;99.90
6244;DHT22;3155;49.940;8.450;2022-12-11T03:35:43;-2.90;99.90
6244;DHT22;3155;49.940;8.450;2022-12-11T03:38:27;-2.80;99.90
6244;DHT22;3155;49.940;8.450;2022-12-11T03:40:59;-2.80;99.90
6244;DHT22;3155;49.940;8.450;2022-12-11T03:43:28;-2.80;99.90
6244;DHT22;3155;49.940;8.450;2022-12-11T03:45:58;-2.80;99.90
6244;DHT22;3155;49.940;8.450;2022-12-11T03:48:31;-2.70;99.90
6244;DHT22;3155;49.940;8.450;2022-12-11T03:51:01;-2.70;99.90
6244;DHT22;3155;49.940;8.450;2022-12-11T03:53:30;-2.60;99.90
6244;DHT22;3155;49.940;8.450;2022-12-11T03:56:03;-2.70;99.90
6244;DHT22;3155;49.940;8.450;2022-12-11T03:58:34;-2.60;99.90
6244;DHT22;3155;49.940;8.450;2022-12-11T04:01:08;-2.60;99.90
6244;DHT22;3155;49.940;8.450;2022-12-11T04:03:35;-2.60;99.90
6244;DHT22;3155;49.940;8.450;2022-12-11T04:06:02;-2.50;99.90
6244;DHT22;3155;49.940;8.450;2022-12-11T04:08:31;-2.50;99.90
6244;DHT22;3155;49.940;8.450;2022-12-11T04:10:58;-2.50;99.90
6244;DHT22;3155;49.940;8.450;2022-12-11T04:16:46;-2.50;99.90
6244;DHT22;3155;49.940;8.450;2022-12-11T04:19:13;-2.50;99.90
6244;DHT22;3155;49.940;8.450;2022-12-11T04:21:58;-2.50;99.90
6244;DHT22;3155;49.940;8.450;2022-12-11T04:24:47;-2.60;99.90
6244;DHT22;3155;49.940;8.450;2022-12-11T04:27:15;-2.60;99.90
6244;DHT22;3155;49.940;8.450;2022-12-11T04:30:05;-2.60;99.90
6244;DHT22;3155;49.940;8.450;2022-12-11T04:32:34;-2.60;99.90
6244;DHT22;3155;49.940;8.450;2022-12-11T04:35:00;-2.60;99.90
6244;DHT22;3155;49.940;8.450;2022-12-11T04:37:28;-2.60;99.90
6244;DHT22;3155;49.940;8.450;2022-12-11T04:39:54;-2.60;99.90
6244;DHT22;3155;49.940;8.450;2022-12-11T04:42:21;-2.60;99.90
6244;DHT22;3155;49.940;8.450;2022-12-11T04:44:48;-2.60;99.90
6244;DHT22;3155;49.940;8.450;2022-12-11T04:47:15;-2.60;99.90
6244;DHT22;3155;49.940;8.450;2022-12-11T04:49:44;-2.60;99.90
6244;DHT22;3155;49.940;8.450;2022-12-11T04:52:11;-2.60;99.90
6244;DHT22;3155;49.940;8.450;2022-12-11T04:54:41;-2.60;99.90
6244;DHT22;3155;49.940;8.450;2022-12-11T04:57:08;-2.70;99.90
6244;DHT22;3155;49.940;8.450;2022-12-11T04:59:35;-2.70;99.90
6244;DHT22;3155;49.940;8.450;2022-12-11T05:02:05;-2.70;99.90
6244;DHT22;3155;49.940;8.450;2022-12-11T05:04:33;-2.70;99.90
6244;DHT22;3155;49.940;8.450;2022-12-11T05:07:00;-2.80;99.90
6244;DHT22;3155;49.940;8.450;2022-12-11T05:09:27;-2.80;99.90
6244;DHT22;3155;49.940;8.450;2022-12-11T05:11:54;-2.80;99.90
6244;DHT22;3155;49.940;8.450;2022-12-11T05:14:21;-2.80;99.90
6244;DHT22;3155;49.940;8.450;2022-12-11T05:16:50;-2.70;99.90
6244;DHT22;3155;49.940;8.450;2022-12-11T05:19:17;-2.70;99.90
6244;DHT22;3155;49.940;8.450;2022-12-11T05:21:47;-2.60;99.90
6244;DHT22;3155;49.940;8.450;2022-12-11T05:24:13;-2.60;99.90
6244;DHT22;3155;49.940;8.450;2022-12-11T05:26:40;-2.60;99.90
6244;DHT22;3155;49.940;8.450;2022-12-11T05:29:07;-2.50;99.90
6244;DHT22;3155;49.940;8.450;2022-12-11T05:31:34;-2.50;99.90
6244;DHT22;3155;49.940;8.450;2022-12-11T05:34:04;-2.50;99.90
6244;DHT22;3155;49.940;8.450;2022-12-11T05:36:34;-2.60;99.90
6244;DHT22;3155;49.940;8.450;2022-12-11T05:39:02;-2.60;99.90
6244;DHT22;3155;49.940;8.450;2022-12-11T05:41:30;-2.60;99.90
6244;DHT22;3155;49.940;8.450;2022-12-11T05:43:58;-2.60;99.90
6244;DHT22;3155;49.940;8.450;2022-12-11T05:46:27;-2.70;99.90
6244;DHT22;3155;49.940;8.450;2022-12-11T05:48:57;-2.70;99.90
6244;DHT22;3155;49.940;8.450;2022-12-11T05:51:25;-2.70;99.90
6244;DHT22;3155;49.940;8.450;2022-12-11T05:53:53;-2.70;99.90
6244;DHT22;3155;49.940;8.450;2022-12-11T05:56:25;-2.70;99.90
6244;DHT22;3155;49.940;8.450;2022-12-11T05:58:54;-2.80;99.90
6244;DHT22;3155;49.940;8.450;2022-12-11T06:01:24;-2.80;99.90
6244;DHT22;3155;49.940;8.450;2022-12-11T06:03:52;-2.70;99.90
6244;DHT22;3155;49.940;8.450;2022-12-11T06:06:19;-2.70;99.90
6244;DHT22;3155;49.940;8.450;2022-12-11T06:08:52;-2.70;99.90
6244;DHT22;3155;49.940;8.450;2022-12-11T06:11:23;-2.70;99.90
6244;DHT22;3155;49.940;8.450;2022-12-11T06:13:51;-2.70;99.90
6244;DHT22;3155;49.940;8.450;2022-12-11T06:16:19;-2.80;99.90
6244;DHT22;3155;49.940;8.450;2022-12-11T06:18:46;-2.80;99.90
6244;DHT22;3155;49.940;8.450;2022-12-11T06:21:21;-2.90;99.90
6244;DHT22;3155;49.940;8.450;2022-12-11T06:23:51;-2.90;99.90
6244;DHT22;3155;49.940;8.450;2022-12-11T06:26:19;-2.90;99.90
6244;DHT22;3155;49.940;8.450;2022-12-11T06:28:49;-3.00;99.90
6244;DHT22;3155;49.940;8.450;2022-12-11T06:31:16;-3.00;99.90
6244;DHT22;3155;49.940;8.450;2022-12-11T06:33:43;-3.00;99.90
6244;DHT22;3155;49.940;8.450;2022-12-11T06:36:16;-3.10;99.90
6244;DHT22;3155;49.940;8.450;2022-12-11T06:38:43;-3.20;99.90
6244;DHT22;3155;49.940;8.450;2022-12-11T06:41:11;-3.10;99.90
6244;DHT22;3155;49.940;8.450;2022-12-11T06:43:39;-3.10;99.90
6244;DHT22;3155;49.940;8.450;2022-12-11T06:46:17;-3.00;99.90
6244;DHT22;3155;49.940;8.450;2022-12-11T06:48:45;-2.90;99.90
6244;DHT22;3155;49.940;8.450;2022-12-11T06:51:21;-2.80;99.90
6244;DHT22;3155;49.940;8.450;2022-12-11T06:53:52;-2.80;99.90
6244;DHT22;3155;49.940;8.450;2022-12-11T06:56:22;-2.80;99.90
6244;DHT22;3155;49.940;8.450;2022-12-11T06:58:49;-2.80;99.90
6244;DHT22;3155;49.940;8.450;2022-12-11T07:01:20;-2.70;99.90
6244;DHT22;3155;49.940;8.450;2022-12-11T07:03:48;-2.70;99.90
6244;DHT22;3155;49.940;8.450;2022-12-11T07:06:15;-2.70;99.90
6244;DHT22;3155;49.940;8.450;2022-12-11T07:08:42;-2.70;99.90
6244;DHT22;3155;49.940;8.450;2022-12-11T07:11:11;-2.70;99.90
6244;DHT22;3155;49.940;8.450;2022-12-11T07:13:38;-2.70;99.90
6244;DHT22;3155;49.940;8.450;2022-12-11T07:16:09;-2.60;99.90
6244;DHT22;3155;49.940;8.450;2022-12-11T07:18:39;-2.60;99.90
6244;DHT22;3155;49.940;8.450;2022-12-11T07:21:07;-2.60;99.90
6244;DHT22;3155;49.940;8.450;2022-12-11T07:23:35;-2.60;99.90
6244;DHT22;3155;49.940;8.450;2022-12-11T07:26:06;-2.50;99.90
6244;DHT22;3155;49.940;8.450;2022-12-11T07:28:33;-2.50;99.90
6244;DHT22;3155;49.940;8.450;2022-12-11T07:31:09;-2.40;99.90
6244;DHT22;3155;49.940;8.450;2022-12-11T07:33:36;-2.40;99.90
6244;DHT22;3155;49.940;8.450;2022-12-11T07:36:06;-2.30;99.90
6244;DHT22;3155;49.940;8.450;2022-12-11T07:38:33;-2.30;99.90
6244;DHT22;3155;49.940;8.450;2022-12-11T07:41:04;-2.20;99.90
6244;DHT22;3155;49.940;8.450;2022-12-11T07:43:35;-2.10;99.90
6244;DHT22;3155;49.940;8.450;2022-12-11T07:46:09;-2.10;99.90
6244;DHT22;3155;49.940;8.450;2022-12-11T07:48:37;-2.20;99.90
6244;DHT22;3155;49.940;8.450;2022-12-11T07:51:14;-2.10;99.90
6244;DHT22;3155;49.940;8.450;2022-12-11T07:53:47;-2.00;99.90
6244;DHT22;3155;49.940;8.450;2022-12-11T07:56:14;-1.90;99.90
6244;DHT22;3155;49.940;8.450;2022-12-11T07:58:41;-1.90;99.90
6244;DHT22;3155;49.940;8.450;2022-12-11T08:03:43;-1.90;99.90
6244;DHT22;3155;49.940;8.450;2022-12-11T08:06:11;-1.90;99.90
6244;DHT22;3155;49.940;8.450;2022-12-11T08:08:38;-1.80;99.90
6244;DHT22;3155;49.940;8.450;2022-12-11T08:11:09;-1.80;99.90
6244;DHT22;3155;49.940;8.450;2022-12-11T08:13:40;-1.70;99.90
6244;DHT22;3155;49.940;8.450;2022-12-11T08:16:09;-1.70;99.90
6244;DHT22;3155;49.940;8.450;2022-12-11T08:18:36;-1.80;99.90
6244;DHT22;3155;49.940;8.450;2022-12-11T08:21:17;-1.80;99.90
6244;DHT22;3155;49.940;8.450;2022-12-11T08:23:45;-1.70;99.90
6244;DHT22;3155;49.940;8.450;2022-12-11T08:26:14;-1.60;99.90
6244;DHT22;3155;49.940;8.450;2022-12-11T08:28:42;-1.50;99.90
6244;DHT22;3155;49.940;8.450;2022-12-11T08:31:09;-1.50;99.90
6244;DHT22;3155;49.940;8.450;2022-12-11T08:33:38;-1.40;99.90
6244;DHT22;3155;49.940;8.450;2022-12-11T08:36:07;-1.40;99.90
6244;DHT22;3155;49.940;8.450;2022-12-11T08:38:37;-1.30;99.90
6244;DHT22;3155;49.940;8.450;2022-12-11T08:41:11;-1.30;99.90
6244;DHT22;3155;49.940;8.450;2022-12-11T08:43:39;-1.20;99.90
6244;DHT22;3155;49.940;8.450;2022-12-11T08:46:10;-1.30;99.90
6244;DHT22;3155;49.940;8.450;2022-12-11T08:48:38;-1.30;99.90
6244;DHT22;3155;49.940;8.450;2022-12-11T08:51:15;-1.20;99.90
6244;DHT22;3155;49.940;8.450;2022-12-11T08:53:42;-1.10;99.90
6244;DHT22;3155;49.940;8.450;2022-12-11T08:56:12;-1.00;99.90
6244;DHT22;3155;49.940;8.450;2022-12-11T08:58:40;-0.80;99.90
6244;DHT22;3155;49.940;8.450;2022-12-11T09:01:09;-0.80;99.90
6244;DHT22;3155;49.940;8.450;2022-12-11T09:03:38;-0.70;99.90
6244;DHT22;3155;49.940;8.450;2022-12-11T09:06:08;-0.80;99.90
6244;DHT22;3155;49.940;8.450;2022-12-11T09:08:35;-0.90;99.90
6244;DHT22;3155;49.940;8.450;2022-12-11T09:11:07;-1.00;99.90
6244;DHT22;3155;49.940;8.450;2022-12-11T09:13:35;-1.00;99.90
6244;DHT22;3155;49.940;8.450;2022-12-11T09:16:07;-1.00;99.90
6244;DHT22;3155;49.940;8.450;2022-12-11T09:18:36;-1.00;99.90
6244;DHT22;3155;49.940;8.450;2022-12-11T09:21:06;-1.00;99.90
6244;DHT22;3155;49.940;8.450;2022-12-11T09:23:39;-1.00;99.90
6244;DHT22;3155;49.940;8.450;2022-12-11T09:26:08;-0.80;99.90
6244;DHT22;3155;49.940;8.450;2022-12-11T09:28:37;-0.50;99.90
6244;DHT22;3155;49.940;8.450;2022-12-11T09:31:15;-0.20;99.90
6244;DHT22;3155;49.940;8.450;2022-12-11T09:33:42;-0.10;99.90
6244;DHT22;3155;49.940;8.450;2022-12-11T09:36:10;-0.10;99.90
6244;DHT22;3155;49.940;8.450;2022-12-11T09:38:37;-0.30;99.90
6244;DHT22;3155;49.940;8.450;2022-12-11T09:44:14;-0.40;99.90
6244;DHT22;3155;49.940;8.450;2022-12-11T09:46:42;-0.60;99.90
6244;DHT22;3155;49.940;8.450;2022-12-11T09:49:23;-0.60;99.90
6244;DHT22;3155;49.940;8.450;2022-12-11T09:54:51;-0.50;99.90
6244;DHT22;3155;49.940;8.450;2022-12-11T10:08:19;-0.60;99.90
6244;DHT22;3155;49.940;8.450;2022-12-11T10:16:04;-0.80;99.90
6244;DHT22;3155;49.940;8.450;2022-12-11T10:18:35;-0.70;99.90
6244;DHT22;3155;49.940;8.450;2022-12-11T10:21:03;-0.60;99.90
6244;DHT22;3155;49.940;8.450;2022-12-11T10:23:35;-0.60;99.90
6244;DHT22;3155;49.940;8.450;2022-12-11T10:28:30;-0.40;99.90
6244;DHT22;3155;49.940;8.450;2022-12-11T10:31:25;-0.40;99.90
6244;DHT22;3155;49.940;8.450;2022-12-11T10:34:03;-0.30;99.90
6244;DHT22;3155;49.940;8.450;2022-12-11T10:36:35;-0.20;99.90
6244;DHT22;3155;49.940;8.450;2022-12-11T10:39:11;-0.20;99.90
6244;DHT22;3155;49.940;8.450;2022-12-11T10:41:41;-0.20;99.90
6244;DHT22;3155;49.940;8.450;2022-12-11T10:44:15;-0.30;99.90
6244;DHT22;3155;49.940;8.450;2022-12-11T10:46:44;-0.30;99.90
6244;DHT22;3155;49.940;8.450;2022-12-11T10:49:27;-0.40;99.90
6244;DHT22;3155;49.940;8.450;2022-12-11T10:51:54;-0.40;99.90
6244;DHT22;3155;49.940;8.450;2022-12-11T10:54:36;-0.20;99.90
6244;DHT22;3155;49.940;8.450;2022-12-11T10:57:09;-0.20;99.90
6244;DHT22;3155;49.940;8.450;2022-12-11T11:02:06;0.00;99.90
6244;DHT22;3155;49.940;8.450;2022-12-11T11:04:44;0.00;99.90
6244;DHT22;3155;49.940;8.450;2022-12-11T11:09:44;0.30;99.90
6244;DHT22;3155;49.940;8.450;2022-12-11T11:14:46;0.40;99.90
6244;DHT22;3155;49.940;8.450;2022-12-11T11:17:15;0.50;99.90
6244;DHT22;3155;49.940;8.450;2022-12-11T11:19:46;0.50;99.90
6244;DHT22;3155;49.940;8.450;2022-12-11T11:22:16;0.60;99.90
6244;DHT22;3155;49.940;8.450;2022-12-11T11:24:44;0.50;99.90
6244;DHT22;3155;49.940;8.450;2022-12-11T11:29:40;0.50;99.90
6244;DHT22;3155;49.940;8.450;2022-12-11T11:32:15;0.50;99.90
6244;DHT22;3155;49.940;8.450;2022-12-11T11:34:43;0.50;99.90
6244;DHT22;3155;49.940;8.450;2022-12-11T11:37:25;0.50;99.90
6244;DHT22;3155;49.940;8.450;2022-12-11T11:39:55;0.50;99.90
6244;DHT22;3155;49.940;8.450;2022-12-11T11:45:21;0.60;99.90
6244;DHT22;3155;49.940;8.450;2022-12-11T11:48:09;0.60;99.90
6244;DHT22;3155;49.940;8.450;2022-12-11T11:50:40;0.80;99.90
6244;DHT22;3155;49.940;8.450;2022-12-11T11:53:27;0.90;99.90
6244;DHT22;3155;49.940;8.450;2022-12-11T12:01:21;0.90;99.90
6244;DHT22;3155;49.940;8.450;2022-12-11T12:03:48;0.90;99.90
6244;DHT22;3155;49.940;8.450;2022-12-11T12:11:56;1.20;99.90
6244;DHT22;3155;49.940;8.450;2022-12-11T12:14:43;1.20;99.90
6244;DHT22;3155;49.940;8.450;2022-12-11T12:17:47;1.10;99.90
6244;DHT22;3155;49.940;8.450;2022-12-11T12:20:59;1.00;99.90
6244;DHT22;3155;49.940;8.450;2022-12-11T12:23:43;0.90;99.90
6244;DHT22;3155;49.940;8.450;2022-12-11T12:37:43;0.20;99.90
6244;DHT22;3155;49.940;8.450;2022-12-11T12:43:30;0.00;99.90
6244;DHT22;3155;49.940;8.450;2022-12-11T12:48:07;-0.10;99.90
6244;DHT22;3155;49.940;8.450;2022-12-11T12:50:42;-0.10;99.90
6244;DHT22;3155;49.940;8.450;2022-12-11T12:53:25;-0.10;99.90
6244;DHT22;3155;49.940;8.450;2022-12-11T12:55:53;0.00;99.90
6244;DHT22;3155;49.940;8.450;2022-12-11T12:58:44;0.00;99.90
6244;DHT22;3155;49.940;8.450;2022-12-11T13:03:54;0.10;99.90
6244;DHT22;3155;49.940;8.450;2022-12-11T13:06:39;0.10;99.90
6244;DHT22;3155;49.940;8.450;2022-12-11T13:09:17;0.00;99.90
6244;DHT22;3155;49.940;8.450;2022-12-11T13:11:46;0.10;99.90
6244;DHT22;3155;49.940;8.450;2022-12-11T13:16:44;0.10;99.90
6244;DHT22;3155;49.940;8.450;2022-12-11T13:22:16;0.30;99.90
6244;DHT22;3155;49.940;8.450;2022-12-11T13:27:39;0.20;99.90
6244;DHT22;3155;49.940;8.450;2022-12-11T13:35:18;0.00;99.90
6244;DHT22;3155;49.940;8.450;2022-12-11T13:37:48;0.00;99.90
6244;DHT22;3155;49.940;8.450;2022-12-11T13:40:25;-0.10;99.90
6244;DHT22;3155;49.940;8.450;2022-12-11T13:42:59;-0.10;99.90
6244;DHT22;3155;49.940;8.450;2022-12-11T13:45:59;-0.20;99.90
6244;DHT22;3155;49.940;8.450;2022-12-11T13:51:03;-0.10;99.90
6244;DHT22;3155;49.940;8.450;2022-12-11T13:53:31;-0.10;99.90
6244;DHT22;3155;49.940;8.450;2022-12-11T13:56:00;0.00;99.90
6244;DHT22;3155;49.940;8.450;2022-12-11T13:58:36;0.00;99.90
6244;DHT22;3155;49.940;8.450;2022-12-11T14:01:05;0.00;99.90
6244;DHT22;3155;49.940;8.450;2022-12-11T14:03:39;-0.10;99.90
6244;DHT22;3155;49.940;8.450;2022-12-11T14:06:10;-0.20;99.90
6244;DHT22;3155;49.940;8.450;2022-12-11T14:08:48;-0.20;99.90
6244;DHT22;3155;49.940;8.450;2022-12-11T14:11:26;-0.30;99.90
6244;DHT22;3155;49.940;8.450;2022-12-11T14:13:55;-0.30;99.90
6244;DHT22;3155;49.940;8.450;2022-12-11T14:16:24;-0.30;99.90
6244;DHT22;3155;49.940;8.450;2022-12-11T14:18:52;-0.30;99.90
6244;DHT22;3155;49.940;8.450;2022-12-11T14:21:23;-0.20;99.90
6244;DHT22;3155;49.940;8.450;2022-12-11T14:23:52;-0.20;99.90
6244;DHT22;3155;49.940;8.450;2022-12-11T14:26:22;-0.20;99.90
6244;DHT22;3155;49.940;8.450;2022-12-11T14:28:50;-0.20;99.90
6244;DHT22;3155;49.940;8.450;2022-12-11T14:31:34;-0.30;99.90
6244;DHT22;3155;49.940;8.450;2022-12-11T14:34:10;-0.40;99.90
6244;DHT22;3155;49.940;8.450;2022-12-11T14:36:40;-0.40;99.90
6244;DHT22;3155;49.940;8.450;2022-12-11T14:39:15;-0.50;99.90
6244;DHT22;3155;49.940;8.450;2022-12-11T14:42:01;-0.50;99.90
6244;DHT22;3155;49.940;8.450;2022-12-11T14:44:55;-0.40;99.90
6244;DHT22;3155;49.940;8.450;2022-12-11T14:47:41;-0.50;99.90
6244;DHT22;3155;49.940;8.450;2022-12-11T14:50:41;-0.60;99.90
6244;DHT22;3155;49.940;8.450;2022-12-11T14:53:18;-0.60;99.90
6244;DHT22;3155;49.940;8.450;2022-12-11T14:55:47;-0.70;99.90
6244;DHT22;3155;49.940;8.450;2022-12-11T14:58:18;-0.70;99.90
6244;DHT22;3155;49.940;8.450;2022-12-11T15:01:01;-0.80;99.90
6244;DHT22;3155;49.940;8.450;2022-12-11T15:03:31;-0.90;99.90
6244;DHT22;3155;49.940;8.450;2022-12-11T15:06:00;-1.00;99.90
6244;DHT22;3155;49.940;8.450;2022-12-11T15:08:29;-0.90;99.90
6244;DHT22;3155;49.940;8.450;2022-12-11T15:13:36;-0.90;99.90
6244;DHT22;3155;49.940;8.450;2022-12-11T15:16:05;-1.00;99.90
6244;DHT22;3155;49.940;8.450;2022-12-11T15:18:35;-1.00;99.90
6244;DHT22;3155;49.940;8.450;2022-12-11T15:21:06;-1.10;99.90
6244;DHT22;3155;49.940;8.450;2022-12-11T15:23:58;-1.10;99.90
6244;DHT22;3155;49.940;8.450;2022-12-11T15:26:46;-1.10;99.90
6244;DHT22;3155;49.940;8.450;2022-12-11T15:29:38;-1.00;99.90
6244;DHT22;3155;49.940;8.450;2022-12-11T15:34:43;-1.00;99.90
6244;DHT22;3155;49.940;8.450;2022-12-11T15:37:17;-1.10;99.90
6244;DHT22;3155;49.940;8.450;2022-12-11T15:39:44;-1.10;99.90
6244;DHT22;3155;49.940;8.450;2022-12-11T15:42:15;-1.10;99.90
6244;DHT22;3155;49.940;8.450;2022-12-11T15:44:42;-1.10;99.90
6244;DHT22;3155;49.940;8.450;2022-12-11T15:47:14;-1.10;99.90
6244;DHT22;3155;49.940;8.450;2022-12-11T15:49:41;-1.10;99.90
6244;DHT22;3155;49.940;8.450;2022-12-11T15:52:08;-1.20;99.90
6244;DHT22;3155;49.940;8.450;2022-12-11T15:54:34;-1.20;99.90
6244;DHT22;3155;49.940;8.450;2022-12-11T15:57:04;-1.20;99.90
6244;DHT22;3155;49.940;8.450;2022-12-11T15:59:32;-1.20;99.90
6244;DHT22;3155;49.940;8.450;2022-12-11T16:01:59;-1.20;99.90
6244;DHT22;3155;49.940;8.450;2022-12-11T16:04:25;-1.20;99.90
6244;DHT22;3155;49.940;8.450;2022-12-11T16:06:55;-1.10;99.90
6244;DHT22;3155;49.940;8.450;2022-12-11T16:09:22;-1.10;99.90
6244;DHT22;3155;49.940;8.450;2022-12-11T16:11:49;-1.10;99.90
6244;DHT22;3155;49.940;8.450;2022-12-11T16:14:16;-1.10;99.90
6244;DHT22;3155;49.940;8.450;2022-12-11T16:16:43;-1.10;99.90
6244;DHT22;3155;49.940;8.450;2022-12-11T16:19:09;-1.20;99.90
6244;DHT22;3155;49.940;8.450;2022-12-11T16:21:36;-1.20;99.90
6244;DHT22;3155;49.940;8.450;2022-12-11T16:24:03;-1.20;99.90
6244;DHT22;3155;49.940;8.450;2022-12-11T16:26:30;-1.20;99.90
6244;DHT22;3155;49.940;8.450;2022-12-11T16:28:57;-1.20;99.90
6244;DHT22;3155;49.940;8.450;2022-12-11T16:31:27;-1.30;99.90
6244;DHT22;3155;49.940;8.450;2022-12-11T16:33:54;-1.30;99.90
6244;DHT22;3155;49.940;8.450;2022-12-11T16:36:21;-1.30;99.90
6244;DHT22;3155;49.940;8.450;2022-12-11T16:38:50;-1.30;99.90
6244;DHT22;3155;49.940;8.450;2022-12-11T16:41:21;-1.30;99.90
6244;DHT22;3155;49.940;8.450;2022-12-11T16:43:50;-1.30;99.90
6244;DHT22;3155;49.940;8.450;2022-12-11T16:46:18;-1.30;99.90
6244;DHT22;3155;49.940;8.450;2022-12-11T16:48:48;-1.30;99.90
6244;DHT22;3155;49.940;8.450;2022-12-11T16:51:16;-1.30;99.90
6244;DHT22;3155;49.940;8.450;2022-12-11T16:53:45;-1.30;99.90
6244;DHT22;3155;49.940;8.450;2022-12-11T16:56:12;-1.40;99.90
6244;DHT22;3155;49.940;8.450;2022-12-11T16:58:41;-1.30;99.90
6244;DHT22;3155;49.940;8.450;2022-12-11T17:01:13;-1.30;99.90
6244;DHT22;3155;49.940;8.450;2022-12-11T17:03:41;-1.40;99.90
6244;DHT22;3155;49.940;8.450;2022-12-11T17:06:10;-1.30;99.90
6244;DHT22;3155;49.940;8.450;2022-12-11T17:08:37;-1.20;99.90
6244;DHT22;3155;49.940;8.450;2022-12-11T17:11:06;-1.20;99.90
6244;DHT22;3155;49.940;8.450;2022-12-11T17:13:33;-1.20;99.90
6244;DHT22;3155;49.940;8.450;2022-12-11T17:16:07;-1.20;99.90
6244;DHT22;3155;49.940;8.450;2022-12-11T17:18:34;-1.20;99.90
6244;DHT22;3155;49.940;8.450;2022-12-11T17:21:20;-1.20;99.90
6244;DHT22;3155;49.940;8.450;2022-12-11T17:23:50;-1.20;99.90
6244;DHT22;3155;49.940;8.450;2022-12-11T17:26:17;-1.30;99.90
6244;DHT22;3155;49.940;8.450;2022-12-11T17:28:44;-1.30;99.90
6244;DHT22;3155;49.940;8.450;2022-12-11T17:31:16;-1.30;99.90
6244;DHT22;3155;49.940;8.450;2022-12-11T17:33:44;-1.40;99.90
6244;DHT22;3155;49.940;8.450;2022-12-11T17:36:17;-1.40;99.90
6244;DHT22;3155;49.940;8.450;2022-12-11T17:38:44;-1.40;99.90
6244;DHT22;3155;49.940;8.450;2022-12-11T17:41:12;-1.40;99.90
6244;DHT22;3155;49.940;8.450;2022-12-11T17:43:49;-1.40;99.90
6244;DHT22;3155;49.940;8.450;2022-12-11T17:46:18;-1.40;99.90
6244;DHT22;3155;49.940;8.450;2022-12-11T17:48:45;-1.40;99.90
6244;DHT22;3155;49.940;8.450;2022-12-11T17:51:13;-1.50;99.90
6244;DHT22;3155;49.940;8.450;2022-12-11T17:53:47;-1.60;99.90
6244;DHT22;3155;49.940;8.450;2022-12-11T17:56:13;-1.60;99.90
6244;DHT22;3155;49.940;8.450;2022-12-11T17:58:40;-1.70;99.90
6244;DHT22;3155;49.940;8.450;2022-12-11T18:01:09;-1.70;99.90
6244;DHT22;3155;49.940;8.450;2022-12-11T18:03:38;-1.70;99.90
6244;DHT22;3155;49.940;8.450;2022-12-11T18:06:09;-1.70;99.90
6244;DHT22;3155;49.940;8.450;2022-12-11T18:08:37;-1.80;99.90
6244;DHT22;3155;49.940;8.450;2022-12-11T18:11:13;-1.80;99.90
6244;DHT22;3155;49.940;8.450;2022-12-11T18:13:42;-1.80;99.90
6244;DHT22;3155;49.940;8.450;2022-12-11T18:16:14;-1.80;99.90
6244;DHT22;3155;49.940;8.450;2022-12-11T18:18:43;-1.80;99.90
6244;DHT22;3155;49.940;8.450;2022-12-11T18:21:13;-1.70;99.90
6244;DHT22;3155;49.940;8.450;2022-12-11T18:23:41;-1.70;99.90
6244;DHT22;3155;49.940;8.450;2022-12-11T18:26:08;-1.60;99.90